sensor_id;sensor_type;location;lat;lon;timestamp;P1;durP1;ratioP1;P2;durP2;ratioP2
10293;SDS011;5192;50.328;7.610;2023-01-10T00:01:29;2.43;;;1.30;;
10293;SDS011;5192;50.328;7.610;2023-01-10T00:03:56;1.90;;;1.40;;
10293;SDS011;5192;50.328;7.610;2023-01-10T00:06:24;2.03;;;1.13;;
10293;SDS011;5192;50.328;7.610;2023-01-10T00:08:52;1.60;;;1.13;;
10293;SDS011;5192;50.328;7.610;2023-01-10T00:11:17;0.80;;;0.80;;
10293;SDS011;5192;50.328;7.610;2023-01-10T00:14:03;1.53;;;1.00;;
10293;SDS011;5192;50.328;7.610;2023-01-10T00:16:29;2.20;;;1.10;;
10293;SDS011;5192;50.328;7.610;2023-01-10T00:18:57;0.80;;;0.80;;
10293;SDS011;5192;50.328;7.610;2023-01-10T00:21:22;1.57;;;1.00;;
10293;SDS011;5192;50.328;7.610;2023-01-10T00:23:54;1.00;;;0.90;;
10293;SDS011;5192;50.328;7.610;2023-01-10T00:26:25;1.00;;;0.90;;
10293;SDS011;5192;50.328;7.610;2023-01-10T00:28:52;1.57;;;0.90;;
10293;SDS011;5192;50.328;7.610;2023-01-10T00:31:17;1.30;;;1.07;;
10293;SDS011;5192;50.328;7.610;2023-01-10T00:33:45;0.70;;;0.70;;
10293;SDS011;5192;50.328;7.610;2023-01-10T00:36:12;1.43;;;0.90;;
10293;SDS011;5192;50.328;7.610;2023-01-10T00:38:39;2.13;;;0.93;;
10293;SDS011;5192;50.328;7.610;2023-01-10T00:41:05;1.33;;;0.90;;
10293;SDS011;5192;50.328;7.610;2023-01-10T00:43:52;1.27;;;0.90;;
10293;SDS011;5192;50.328;7.610;2023-01-10T00:46:23;1.83;;;1.10;;
10293;SDS011;5192;50.328;7.610;2023-01-10T00:48:51;2.30;;;1.00;;
10293;SDS011;5192;50.328;7.610;2023-01-10T00:51:20;1.37;;;1.13;;
10293;SDS011;5192;50.328;7.610;2023-01-10T00:53:47;2.80;;;1.30;;
10293;SDS011;5192;50.328;7.610;2023-01-10T00:56:34;2.33;;;1.00;;
10293;SDS011;5192;50.328;7.610;2023-01-10T00:59:03;1.20;;;1.07;;
10293;SDS011;5192;50.328;7.610;2023-01-10T01:01:29;2.53;;;1.20;;
10293;SDS011;5192;50.328;7.610;2023-01-10T01:03:57;1.67;;;1.20;;
10293;SDS011;5192;50.328;7.610;2023-01-10T01:06:25;2.37;;;1.30;;
10293;SDS011;5192;50.328;7.610;2023-01-10T01:08:53;1.77;;;1.30;;
10293;SDS011;5192;50.328;7.610;2023-01-10T01:11:19;1.87;;;1.50;;
10293;SDS011;5192;50.328;7.610;2023-01-10T01:13:49;2.17;;;1.17;;
10293;SDS011;5192;50.328;7.610;2023-01-10T01:16:17;2.47;;;1.50;;
10293;SDS011;5192;50.328;7.610;2023-01-10T01:18:43;1.73;;;1.17;;
10293;SDS011;5192;50.328;7.610;2023-01-10T01:21:10;4.00;;;1.80;;
10293;SDS011;5192;50.328;7.610;2023-01-10T01:23:37;2.77;;;1.53;;
10293;SDS011;5192;50.328;7.610;2023-01-10T01:26:13;3.03;;;1.47;;
10293;SDS011;5192;50.328;7.610;2023-01-10T01:28:45;4.13;;;1.70;;
10293;SDS011;5192;50.328;7.610;2023-01-10T01:31:13;3.03;;;1.70;;
10293;SDS011;5192;50.328;7.610;2023-01-10T01:33:40;3.43;;;1.73;;
10293;SDS011;5192;50.328;7.610;2023-01-10T01:36:08;4.87;;;2.00;;
10293;SDS011;5192;50.328;7.610;2023-01-10T01:38:38;4.03;;;2.17;;
10293;SDS011;5192;50.328;7.610;2023-01-10T01:41:07;1.87;;;1.70;;
10293;SDS011;5192;50.328;7.610;2023-01-10T01:43:59;3.67;;;1.70;;
10293;SDS011;5192;50.328;7.610;2023-01-10T01:46:27;3.33;;;1.90;;
10293;SDS011;5192;50.328;7.610;2023-01-10T01:48:55;4.97;;;1.90;;
10293;SDS011;5192;50.328;7.610;2023-01-10T01:51:26;4.10;;;1.87;;
10293;SDS011;5192;50.328;7.610;2023-01-10T01:54:01;2.17;;;1.70;;
10293;SDS011;5192;50.328;7.610;2023-01-10T01:56:33;4.57;;;1.77;;
10293;SDS011;5192;50.328;7.610;2023-01-10T02:01:56;3.97;;;2.00;;
10293;SDS011;5192;50.328;7.610;2023-01-10T02:04:55;7.27;;;2.10;;
10293;SDS011;5192;50.328;7.610;2023-01-10T02:07:58;3.53;;;2.10;;
10293;SDS011;5192;50.328;7.610;2023-01-10T02:13:17;4.47;;;2.20;;
10293;SDS011;5192;50.328;7.610;2023-01-10T02:15:48;4.43;;;1.80;;
10293;SDS011;5192;50.328;7.610;2023-01-10T02:18:16;5.23;;;1.90;;
10293;SDS011;5192;50.328;7.610;2023-01-10T02:26:30;4.97;;;1.80;;
10293;SDS011;5192;50.328;7.610;2023-01-10T02:35:19;6.30;;;2.23;;
10293;SDS011;5192;50.328;7.610;2023-01-10T02:37:59;8.23;;;1.90;;
10293;SDS011;5192;50.328;7.610;2023-01-10T02:43:33;5.03;;;2.50;;
10293;SDS011;5192;50.328;7.610;2023-01-10T02:46:14;6.93;;;2.40;;
10293;SDS011;5192;50.328;7.610;2023-01-10T02:48:47;3.73;;;1.87;;
10293;SDS011;5192;50.328;7.610;2023-01-10T03:03:01;4.67;;;2.43;;
10293;SDS011;5192;50.328;7.610;2023-01-10T03:08:34;6.53;;;3.17;;
10293;SDS011;5192;50.328;7.610;2023-01-10T03:11:04;12.30;;;2.90;;
10293;SDS011;5192;50.328;7.610;2023-01-10T03:16:22;7.23;;;2.30;;
10293;SDS011;5192;50.328;7.610;2023-01-10T03:19:12;5.23;;;2.43;;
10293;SDS011;5192;50.328;7.610;2023-01-10T03:21:43;7.07;;;2.63;;
10293;SDS011;5192;50.328;7.610;2023-01-10T03:24:17;4.73;;;2.70;;
10293;SDS011;5192;50.328;7.610;2023-01-10T03:26:53;7.97;;;2.50;;
10293;SDS011;5192;50.328;7.610;2023-01-10T03:29:55;5.83;;;2.40;;
10293;SDS011;5192;50.328;7.610;2023-01-10T03:32:53;5.53;;;2.77;;
10293;SDS011;5192;50.328;7.610;2023-01-10T03:35:21;8.33;;;2.80;;
10293;SDS011;5192;50.328;7.610;2023-01-10T03:38:24;8.50;;;2.53;;
10293;SDS011;5192;50.328;7.610;2023-01-10T03:41:12;7.83;;;2.70;;
10293;SDS011;5192;50.328;7.610;2023-01-10T03:49:58;5.30;;;2.60;;
10293;SDS011;5192;50.328;7.610;2023-01-10T03:52:28;8.87;;;3.00;;
10293;SDS011;5192;50.328;7.610;2023-01-10T03:54:58;7.77;;;3.10;;
10293;SDS011;5192;50.328;7.610;2023-01-10T03:57:28;7.90;;;2.60;;
10293;SDS011;5192;50.328;7.610;2023-01-10T03:59:56;9.17;;;2.40;;
10293;SDS011;5192;50.328;7.610;2023-01-10T04:02:27;4.97;;;2.87;;
10293;SDS011;5192;50.328;7.610;2023-01-10T04:04:57;5.80;;;2.43;;
10293;SDS011;5192;50.328;7.610;2023-01-10T04:07:24;5.97;;;2.73;;
10293;SDS011;5192;50.328;7.610;2023-01-10T04:09:52;8.67;;;3.07;;
10293;SDS011;5192;50.328;7.610;2023-01-10T04:12:19;7.30;;;2.70;;
10293;SDS011;5192;50.328;7.610;2023-01-10T04:14:45;8.27;;;3.27;;
10293;SDS011;5192;50.328;7.610;2023-01-10T04:17:12;8.07;;;3.67;;
10293;SDS011;5192;50.328;7.610;2023-01-10T04:19:39;7.57;;;3.03;;
10293;SDS011;5192;50.328;7.610;2023-01-10T04:22:06;5.73;;;2.37;;
10293;SDS011;5192;50.328;7.610;2023-01-10T04:24:34;9.53;;;2.90;;
10293;SDS011;5192;50.328;7.610;2023-01-10T04:27:01;6.83;;;2.87;;
10293;SDS011;5192;50.328;7.610;2023-01-10T04:29:29;9.23;;;3.00;;
10293;SDS011;5192;50.328;7.610;2023-01-10T04:31:54;7.37;;;2.87;;
10293;SDS011;5192;50.328;7.610;2023-01-10T04:34:23;6.27;;;3.00;;
10293;SDS011;5192;50.328;7.610;2023-01-10T04:36:50;8.30;;;2.90;;
10293;SDS011;5192;50.328;7.610;2023-01-10T04:39:18;6.27;;;3.37;;
10293;SDS011;5192;50.328;7.610;2023-01-10T04:41:45;4.77;;;3.07;;
10293;SDS011;5192;50.328;7.610;2023-01-10T04:44:13;7.23;;;3.13;;
10293;SDS011;5192;50.328;7.610;2023-01-10T04:46:40;9.47;;;3.50;;
10293;SDS011;5192;50.328;7.610;2023-01-10T04:49:08;7.50;;;3.03;;
10293;SDS011;5192;50.328;7.610;2023-01-10T04:51:34;6.87;;;3.03;;
10293;SDS011;5192;50.328;7.610;2023-01-10T04:54:01;6.27;;;2.77;;
10293;SDS011;5192;50.328;7.610;2023-01-10T04:56:28;7.53;;;2.93;;
10293;SDS011;5192;50.328;7.610;2023-01-10T04:58:55;5.53;;;2.90;;
10293;SDS011;5192;50.328;7.610;2023-01-10T05:01:22;7.60;;;3.10;;
10293;SDS011;5192;50.328;7.610;2023-01-10T05:03:51;6.93;;;3.30;;
10293;SDS011;5192;50.328;7.610;2023-01-10T05:06:22;6.37;;;2.50;;
10293;SDS011;5192;50.328;7.610;2023-01-10T05:08:49;7.27;;;2.70;;
10293;SDS011;5192;50.328;7.610;2023-01-10T05:11:18;6.40;;;3.00;;
10293;SDS011;5192;50.328;7.610;2023-01-10T05:13:46;7.40;;;3.23;;
10293;SDS011;5192;50.328;7.610;2023-01-10T05:16:12;8.53;;;2.93;;
10293;SDS011;5192;50.328;7.610;2023-01-10T05:18:39;7.70;;;2.90;;
10293;SDS011;5192;50.328;7.610;2023-01-10T05:21:07;8.00;;;3.03;;
10293;SDS011;5192;50.328;7.610;2023-01-10T05:23:35;11.87;;;3.73;;
10293;SDS011;5192;50.328;7.610;2023-01-10T05:26:08;12.17;;;3.40;;
10293;SDS011;5192;50.328;7.610;2023-01-10T05:28:44;9.07;;;3.27;;
10293;SDS011;5192;50.328;7.610;2023-01-10T05:31:17;6.93;;;2.83;;
10293;SDS011;5192;50.328;7.610;2023-01-10T05:33:46;7.33;;;2.57;;
10293;SDS011;5192;50.328;7.610;2023-01-10T05:36:23;6.90;;;2.30;;
10293;SDS011;5192;50.328;7.610;2023-01-10T05:38:51;8.53;;;2.97;;
10293;SDS011;5192;50.328;7.610;2023-01-10T05:41:19;11.57;;;3.20;;
10293;SDS011;5192;50.328;7.610;2023-01-10T05:43:44;7.30;;;2.70;;
10293;SDS011;5192;50.328;7.610;2023-01-10T05:46:12;9.00;;;2.90;;
10293;SDS011;5192;50.328;7.610;2023-01-10T05:48:41;11.33;;;3.00;;
10293;SDS011;5192;50.328;7.610;2023-01-10T05:51:08;7.47;;;2.67;;
10293;SDS011;5192;50.328;7.610;2023-01-10T05:53:36;11.30;;;3.27;;
10293;SDS011;5192;50.328;7.610;2023-01-10T05:56:03;5.80;;;3.20;;
10293;SDS011;5192;50.328;7.610;2023-01-10T05:58:30;8.50;;;2.87;;
10293;SDS011;5192;50.328;7.610;2023-01-10T06:00:58;10.13;;;2.77;;
10293;SDS011;5192;50.328;7.610;2023-01-10T06:03:24;6.30;;;2.87;;
10293;SDS011;5192;50.328;7.610;2023-01-10T06:05:55;6.07;;;2.23;;
10293;SDS011;5192;50.328;7.610;2023-01-10T06:08:22;8.33;;;2.53;;
10293;SDS011;5192;50.328;7.610;2023-01-10T06:10:51;5.77;;;2.40;;
10293;SDS011;5192;50.328;7.610;2023-01-10T06:13:18;7.60;;;2.37;;
10293;SDS011;5192;50.328;7.610;2023-01-10T06:15:47;8.23;;;2.80;;
10293;SDS011;5192;50.328;7.610;2023-01-10T06:18:14;9.37;;;2.50;;
10293;SDS011;5192;50.328;7.610;2023-01-10T06:20:43;9.60;;;2.60;;
10293;SDS011;5192;50.328;7.610;2023-01-10T06:23:10;10.60;;;3.13;;
10293;SDS011;5192;50.328;7.610;2023-01-10T06:25:38;8.03;;;2.67;;
10293;SDS011;5192;50.328;7.610;2023-01-10T06:28:07;9.10;;;2.60;;
10293;SDS011;5192;50.328;7.610;2023-01-10T06:30:34;8.07;;;2.90;;
10293;SDS011;5192;50.328;7.610;2023-01-10T06:33:03;7.77;;;2.57;;
10293;SDS011;5192;50.328;7.610;2023-01-10T06:35:31;9.57;;;2.77;;
10293;SDS011;5192;50.328;7.610;2023-01-10T06:37:58;8.33;;;2.77;;
10293;SDS011;5192;50.328;7.610;2023-01-10T06:40:27;6.63;;;2.33;;
10293;SDS011;5192;50.328;7.610;2023-01-10T06:42:55;9.70;;;2.67;;
10293;SDS011;5192;50.328;7.610;2023-01-10T06:45:23;9.27;;;3.00;;
10293;SDS011;5192;50.328;7.610;2023-01-10T06:47:50;13.17;;;3.03;;
10293;SDS011;5192;50.328;7.610;2023-01-10T06:50:15;7.83;;;2.80;;
10293;SDS011;5192;50.328;7.610;2023-01-10T06:52:43;12.33;;;2.73;;
10293;SDS011;5192;50.328;7.610;2023-01-10T06:55:10;9.63;;;2.57;;
10293;SDS011;5192;50.328;7.610;2023-01-10T06:57:38;7.13;;;2.33;;
10293;SDS011;5192;50.328;7.610;2023-01-10T07:00:04;9.77;;;2.83;;
10293;SDS011;5192;50.328;7.610;2023-01-10T07:02:36;9.83;;;2.60;;
10293;SDS011;5192;50.328;7.610;2023-01-10T07:05:03;8.53;;;3.07;;
10293;SDS011;5192;50.328;7.610;2023-01-10T07:07:28;9.07;;;2.17;;
10293;SDS011;5192;50.328;7.610;2023-01-10T07:09:55;7.53;;;2.27;;
10293;SDS011;5192;50.328;7.610;2023-01-10T07:12:25;11.23;;;2.50;;
10293;SDS011;5192;50.328;7.610;2023-01-10T07:14:52;9.33;;;2.63;;
10293;SDS011;5192;50.328;7.610;2023-01-10T07:17:19;10.03;;;2.50;;
10293;SDS011;5192;50.328;7.610;2023-01-10T07:19:46;11.00;;;2.47;;
10293;SDS011;5192;50.328;7.610;2023-01-10T07:22:14;14.50;;;2.73;;
10293;SDS011;5192;50.328;7.610;2023-01-10T07:24:41;15.70;;;3.07;;
10293;SDS011;5192;50.328;7.610;2023-01-10T07:27:08;8.73;;;2.73;;
10293;SDS011;5192;50.328;7.610;2023-01-10T07:29:36;12.67;;;3.43;;
10293;SDS011;5192;50.328;7.610;2023-01-10T07:32:03;8.30;;;2.50;;
10293;SDS011;5192;50.328;7.610;2023-01-10T07:34:31;8.77;;;2.50;;
10293;SDS011;5192;50.328;7.610;2023-01-10T07:37:00;9.77;;;2.43;;
10293;SDS011;5192;50.328;7.610;2023-01-10T07:39:28;11.13;;;2.70;;
10293;SDS011;5192;50.328;7.610;2023-01-10T07:41:55;5.57;;;1.97;;
10293;SDS011;5192;50.328;7.610;2023-01-10T07:44:22;9.77;;;3.10;;
10293;SDS011;5192;50.328;7.610;2023-01-10T07:46:49;8.47;;;2.30;;
10293;SDS011;5192;50.328;7.610;2023-01-10T07:49:16;10.67;;;2.60;;
10293;SDS011;5192;50.328;7.610;2023-01-10T07:51:44;13.20;;;3.03;;
10293;SDS011;5192;50.328;7.610;2023-01-10T07:54:11;12.17;;;2.50;;
10293;SDS011;5192;50.328;7.610;2023-01-10T07:56:37;11.60;;;3.17;;
10293;SDS011;5192;50.328;7.610;2023-01-10T07:59:02;7.90;;;2.67;;
10293;SDS011;5192;50.328;7.610;2023-01-10T08:01:33;11.57;;;2.93;;
10293;SDS011;5192;50.328;7.610;2023-01-10T08:04:02;11.03;;;2.63;;
10293;SDS011;5192;50.328;7.610;2023-01-10T08:06:31;8.70;;;2.57;;
10293;SDS011;5192;50.328;7.610;2023-01-10T08:08:57;10.17;;;2.27;;
10293;SDS011;5192;50.328;7.610;2023-01-10T08:11:25;9.07;;;3.00;;
10293;SDS011;5192;50.328;7.610;2023-01-10T08:13:51;12.23;;;3.10;;
10293;SDS011;5192;50.328;7.610;2023-01-10T08:16:22;7.57;;;2.20;;
10293;SDS011;5192;50.328;7.610;2023-01-10T08:18:49;8.50;;;2.07;;
10293;SDS011;5192;50.328;7.610;2023-01-10T08:21:17;13.83;;;2.73;;
10293;SDS011;5192;50.328;7.610;2023-01-10T08:23:45;9.10;;;2.53;;
10293;SDS011;5192;50.328;7.610;2023-01-10T08:26:12;14.83;;;3.73;;
10293;SDS011;5192;50.328;7.610;2023-01-10T08:28:38;10.87;;;3.17;;
10293;SDS011;5192;50.328;7.610;2023-01-10T08:31:07;13.23;;;2.90;;
10293;SDS011;5192;50.328;7.610;2023-01-10T08:33:35;16.27;;;2.70;;
10293;SDS011;5192;50.328;7.610;2023-01-10T08:36:04;16.47;;;2.47;;
10293;SDS011;5192;50.328;7.610;2023-01-10T08:38:31;13.77;;;2.90;;
10293;SDS011;5192;50.328;7.610;2023-01-10T08:40:59;9.27;;;2.37;;
10293;SDS011;5192;50.328;7.610;2023-01-10T08:43:27;9.33;;;2.50;;
10293;SDS011;5192;50.328;7.610;2023-01-10T08:45:54;12.23;;;2.90;;
10293;SDS011;5192;50.328;7.610;2023-01-10T08:48:22;9.70;;;2.40;;
10293;SDS011;5192;50.328;7.610;2023-01-10T08:50:48;10.73;;;3.07;;
10293;SDS011;5192;50.328;7.610;2023-01-10T08:53:14;11.30;;;2.83;;
10293;SDS011;5192;50.328;7.610;2023-01-10T08:55:41;10.60;;;2.83;;
10293;SDS011;5192;50.328;7.610;2023-01-10T08:58:07;11.53;;;2.97;;
10293;SDS011;5192;50.328;7.610;2023-01-10T09:00:36;9.50;;;2.30;;
10293;SDS011;5192;50.328;7.610;2023-01-10T09:03:04;12.27;;;2.57;;
10293;SDS011;5192;50.328;7.610;2023-01-10T09:05:32;9.73;;;2.57;;
10293;SDS011;5192;50.328;7.610;2023-01-10T09:08:00;9.13;;;2.50;;
10293;SDS011;5192;50.328;7.610;2023-01-10T09:10:28;10.70;;;2.70;;
10293;SDS011;5192;50.328;7.610;2023-01-10T09:12:58;13.43;;;2.50;;
10293;SDS011;5192;50.328;7.610;2023-01-10T09:15:26;8.53;;;2.53;;
10293;SDS011;5192;50.328;7.610;2023-01-10T09:18:01;10.07;;;2.70;;
10293;SDS011;5192;50.328;7.610;2023-01-10T09:20:31;14.20;;;2.63;;
10293;SDS011;5192;50.328;7.610;2023-01-10T09:23:09;12.27;;;2.40;;
10293;SDS011;5192;50.328;7.610;2023-01-10T09:25:42;9.93;;;2.40;;
10293;SDS011;5192;50.328;7.610;2023-01-10T09:28:10;14.07;;;2.93;;
10293;SDS011;5192;50.328;7.610;2023-01-10T09:30:36;14.47;;;2.87;;
10293;SDS011;5192;50.328;7.610;2023-01-10T09:33:05;8.70;;;2.93;;
10293;SDS011;5192;50.328;7.610;2023-01-10T09:35:35;9.57;;;2.90;;
10293;SDS011;5192;50.328;7.610;2023-01-10T09:38:04;8.27;;;2.37;;
10293;SDS011;5192;50.328;7.610;2023-01-10T09:43:27;8.13;;;2.67;;
10293;SDS011;5192;50.328;7.610;2023-01-10T09:49:36;8.70;;;3.10;;
10293;SDS011;5192;50.328;7.610;2023-01-10T09:52:12;9.10;;;2.17;;
10293;SDS011;5192;50.328;7.610;2023-01-10T09:54:47;12.97;;;3.00;;
10293;SDS011;5192;50.328;7.610;2023-01-10T09:57:20;14.43;;;4.20;;
10293;SDS011;5192;50.328;7.610;2023-01-10T09:59:50;13.27;;;2.57;;
10293;SDS011;5192;50.328;7.610;2023-01-10T10:07:55;10.90;;;3.00;;
10293;SDS011;5192;50.328;7.610;2023-01-10T10:10:26;10.80;;;3.00;;
10293;SDS011;5192;50.328;7.610;2023-01-10T10:13:47;9.07;;;2.37;;
10293;SDS011;5192;50.328;7.610;2023-01-10T10:16:54;9.93;;;2.67;;
10293;SDS011;5192;50.328;7.610;2023-01-10T10:22:22;10.63;;;3.00;;
10293;SDS011;5192;50.328;7.610;2023-01-10T10:28:11;9.40;;;2.43;;
10293;SDS011;5192;50.328;7.610;2023-01-10T10:34:28;9.70;;;2.87;;
10293;SDS011;5192;50.328;7.610;2023-01-10T10:43:10;8.80;;;2.20;;
10293;SDS011;5192;50.328;7.610;2023-01-10T10:46:19;10.13;;;2.60;;
10293;SDS011;5192;50.328;7.610;2023-01-10T10:48:42;10.27;;;2.10;;
10293;SDS011;5192;50.328;7.610;2023-01-10T10:54:13;11.53;;;2.47;;
10293;SDS011;5192;50.328;7.610;2023-01-10T10:56:41;7.87;;;2.03;;
10293;SDS011;5192;50.328;7.610;2023-01-10T10:59:09;9.50;;;2.30;;
10293;SDS011;5192;50.328;7.610;2023-01-10T11:01:48;11.23;;;2.40;;
10293;SDS011;5192;50.328;7.610;2023-01-10T11:04:21;8.87;;;2.43;;
10293;SDS011;5192;50.328;7.610;2023-01-10T11:06:57;10.83;;;2.50;;
10293;SDS011;5192;50.328;7.610;2023-01-10T11:09:25;10.00;;;2.57;;
10293;SDS011;5192;50.328;7.610;2023-01-10T11:12:16;8.43;;;2.97;;
10293;SDS011;5192;50.328;7.610;2023-01-10T11:17:30;12.57;;;2.77;;
10293;SDS011;5192;50.328;7.610;2023-01-10T11:20:15;8.40;;;2.30;;
10293;SDS011;5192;50.328;7.610;2023-01-10T11:25:26;12.40;;;2.57;;
10293;SDS011;5192;50.328;7.610;2023-01-10T11:27:53;12.10;;;3.23;;
10293;SDS011;5192;50.328;7.610;2023-01-10T13:02:03;11.43;;;2.87;;
10293;SDS011;5192;50.328;7.610;2023-01-10T13:04:34;11.23;;;2.90;;
10293;SDS011;5192;50.328;7.610;2023-01-10T13:07:02;14.97;;;2.87;;
10293;SDS011;5192;50.328;7.610;2023-01-10T13:09:30;14.33;;;2.80;;
10293;SDS011;5192;50.328;7.610;2023-01-10T13:12:05;11.90;;;2.67;;
10293;SDS011;5192;50.328;7.610;2023-01-10T13:21:06;13.90;;;2.80;;
10293;SDS011;5192;50.328;7.610;2023-01-10T13:23:50;9.37;;;2.77;;
10293;SDS011;5192;50.328;7.610;2023-01-10T13:26:20;11.40;;;3.20;;
10293;SDS011;5192;50.328;7.610;2023-01-10T13:28:53;13.33;;;2.97;;
10293;SDS011;5192;50.328;7.610;2023-01-10T13:31:30;12.47;;;3.00;;
10293;SDS011;5192;50.328;7.610;2023-01-10T13:33:58;8.23;;;2.63;;
10293;SDS011;5192;50.328;7.610;2023-01-10T13:36:54;17.57;;;4.07;;
10293;SDS011;5192;50.328;7.610;2023-01-10T13:39:33;10.10;;;2.80;;
10293;SDS011;5192;50.328;7.610;2023-01-10T13:51:06;11.50;;;3.10;;
10293;SDS011;5192;50.328;7.610;2023-01-10T13:53:41;9.30;;;2.60;;
10293;SDS011;5192;50.328;7.610;2023-01-10T13:59:58;9.60;;;2.67;;
10293;SDS011;5192;50.328;7.610;2023-01-10T14:07:44;9.50;;;3.07;;
10293;SDS011;5192;50.328;7.610;2023-01-10T14:10:21;13.37;;;2.80;;
10293;SDS011;5192;50.328;7.610;2023-01-10T14:15:42;13.53;;;3.03;;
10293;SDS011;5192;50.328;7.610;2023-01-10T14:18:23;10.47;;;3.43;;
10293;SDS011;5192;50.328;7.610;2023-01-10T14:23:49;13.10;;;3.33;;
10293;SDS011;5192;50.328;7.610;2023-01-10T14:26:30;14.57;;;3.13;;
10293;SDS011;5192;50.328;7.610;2023-01-10T14:29:05;8.53;;;2.60;;
10293;SDS011;5192;50.328;7.610;2023-01-10T14:31:42;10.20;;;3.07;;
10293;SDS011;5192;50.328;7.610;2023-01-10T14:37:08;12.37;;;3.17;;
10293;SDS011;5192;50.328;7.610;2023-01-10T14:39:46;15.60;;;3.47;;
10293;SDS011;5192;50.328;7.610;2023-01-10T14:42:13;15.73;;;2.57;;
10293;SDS011;5192;50.328;7.610;2023-01-10T14:44:43;9.87;;;2.60;;
10293;SDS011;5192;50.328;7.610;2023-01-10T14:47:25;10.97;;;3.30;;
10293;SDS011;5192;50.328;7.610;2023-01-10T14:50:05;7.57;;;2.53;;
10293;SDS011;5192;50.328;7.610;2023-01-10T14:52:58;7.60;;;2.50;;
10293;SDS011;5192;50.328;7.610;2023-01-10T14:55:29;14.13;;;3.30;;
10293;SDS011;5192;50.328;7.610;2023-01-10T14:57:57;13.80;;;2.80;;
10293;SDS011;5192;50.328;7.610;2023-01-10T15:03:16;9.17;;;3.00;;
10293;SDS011;5192;50.328;7.610;2023-01-10T15:05:46;11.43;;;3.20;;
10293;SDS011;5192;50.328;7.610;2023-01-10T15:08:16;12.20;;;3.47;;
10293;SDS011;5192;50.328;7.610;2023-01-10T15:11:01;14.20;;;2.80;;
10293;SDS011;5192;50.328;7.610;2023-01-10T15:13:47;10.13;;;2.77;;
10293;SDS011;5192;50.328;7.610;2023-01-10T15:16:18;8.80;;;2.70;;
10293;SDS011;5192;50.328;7.610;2023-01-10T15:18:48;11.00;;;3.30;;
10293;SDS011;5192;50.328;7.610;2023-01-10T15:21:16;8.80;;;2.83;;
10293;SDS011;5192;50.328;7.610;2023-01-10T15:23:48;16.13;;;3.53;;
10293;SDS011;5192;50.328;7.610;2023-01-10T15:26:26;9.87;;;2.70;;
10293;SDS011;5192;50.328;7.610;2023-01-10T15:29:13;10.70;;;3.30;;
10293;SDS011;5192;50.328;7.610;2023-01-10T15:31:47;11.43;;;2.80;;
10293;SDS011;5192;50.328;7.610;2023-01-10T15:34:18;7.77;;;2.83;;
10293;SDS011;5192;50.328;7.610;2023-01-10T15:36:57;9.80;;;2.90;;
10293;SDS011;5192;50.328;7.610;2023-01-10T15:39:30;9.97;;;2.70;;
10293;SDS011;5192;50.328;7.610;2023-01-10T15:42:09;8.70;;;2.70;;
10293;SDS011;5192;50.328;7.610;2023-01-10T15:47:37;14.50;;;3.23;;
10293;SDS011;5192;50.328;7.610;2023-01-10T15:59:26;12.30;;;3.70;;
10293;SDS011;5192;50.328;7.610;2023-01-10T16:04:43;13.53;;;3.53;;
10293;SDS011;5192;50.328;7.610;2023-01-10T16:07:20;14.30;;;3.87;;
10293;SDS011;5192;50.328;7.610;2023-01-10T16:10:03;14.17;;;3.80;;
10293;SDS011;5192;50.328;7.610;2023-01-10T16:13:07;13.37;;;3.43;;
10293;SDS011;5192;50.328;7.610;2023-01-10T16:15:58;7.83;;;3.30;;
10293;SDS011;5192;50.328;7.610;2023-01-10T16:18:30;16.80;;;3.60;;
10293;SDS011;5192;50.328;7.610;2023-01-10T16:20:58;10.77;;;3.60;;
10293;SDS011;5192;50.328;7.610;2023-01-10T16:23:29;14.50;;;3.90;;
10293;SDS011;5192;50.328;7.610;2023-01-10T16:26:01;11.73;;;3.83;;
10293;SDS011;5192;50.328;7.610;2023-01-10T16:28:34;9.60;;;3.47;;
10293;SDS011;5192;50.328;7.610;2023-01-10T16:31:03;10.10;;;2.93;;
10293;SDS011;5192;50.328;7.610;2023-01-10T16:33:30;10.57;;;3.10;;
10293;SDS011;5192;50.328;7.610;2023-01-10T16:36:02;8.50;;;3.20;;
10293;SDS011;5192;50.328;7.610;2023-01-10T16:38:29;16.03;;;3.77;;
10293;SDS011;5192;50.328;7.610;2023-01-10T16:41:00;13.77;;;3.70;;
10293;SDS011;5192;50.328;7.610;2023-01-10T16:43:47;11.67;;;4.10;;
10293;SDS011;5192;50.328;7.610;2023-01-10T16:46:15;10.83;;;3.67;;
10293;SDS011;5192;50.328;7.610;2023-01-10T16:48:42;22.20;;;4.40;;
10293;SDS011;5192;50.328;7.610;2023-01-10T16:51:18;10.03;;;3.83;;
10293;SDS011;5192;50.328;7.610;2023-01-10T16:53:55;9.57;;;3.67;;
10293;SDS011;5192;50.328;7.610;2023-01-10T16:56:27;16.90;;;5.53;;
10293;SDS011;5192;50.328;7.610;2023-01-10T16:58:55;12.47;;;4.33;;
10293;SDS011;5192;50.328;7.610;2023-01-10T17:01:37;10.83;;;4.00;;
10293;SDS011;5192;50.328;7.610;2023-01-10T17:04:06;11.70;;;4.27;;
10293;SDS011;5192;50.328;7.610;2023-01-10T17:06:35;15.90;;;4.30;;
10293;SDS011;5192;50.328;7.610;2023-01-10T17:09:06;14.97;;;4.50;;
10293;SDS011;5192;50.328;7.610;2023-01-10T17:11:40;8.17;;;3.77;;
10293;SDS011;5192;50.328;7.610;2023-01-10T17:14:08;12.43;;;3.97;;
10293;SDS011;5192;50.328;7.610;2023-01-10T17:16:43;13.73;;;4.83;;
10293;SDS011;5192;50.328;7.610;2023-01-10T17:19:12;14.97;;;4.20;;
10293;SDS011;5192;50.328;7.610;2023-01-10T17:21:38;13.97;;;4.00;;
10293;SDS011;5192;50.328;7.610;2023-01-10T17:24:07;10.00;;;3.50;;
10293;SDS011;5192;50.328;7.610;2023-01-10T17:26:37;10.70;;;3.50;;
10293;SDS011;5192;50.328;7.610;2023-01-10T17:29:05;11.43;;;3.83;;
10293;SDS011;5192;50.328;7.610;2023-01-10T17:31:32;10.93;;;3.47;;
10293;SDS011;5192;50.328;7.610;2023-01-10T17:33:58;10.73;;;3.27;;
10293;SDS011;5192;50.328;7.610;2023-01-10T17:36:26;8.23;;;3.53;;
10293;SDS011;5192;50.328;7.610;2023-01-10T17:38:55;10.57;;;3.20;;
10293;SDS011;5192;50.328;7.610;2023-01-10T17:41:22;9.60;;;3.37;;
10293;SDS011;5192;50.328;7.610;2023-01-10T17:43:50;9.03;;;2.83;;
10293;SDS011;5192;50.328;7.610;2023-01-10T17:46:18;12.13;;;3.90;;
10293;SDS011;5192;50.328;7.610;2023-01-10T17:48:47;9.97;;;3.50;;
10293;SDS011;5192;50.328;7.610;2023-01-10T17:51:14;13.23;;;3.37;;
10293;SDS011;5192;50.328;7.610;2023-01-10T17:53:42;8.00;;;3.20;;
10293;SDS011;5192;50.328;7.610;2023-01-10T17:56:10;9.97;;;2.90;;
10293;SDS011;5192;50.328;7.610;2023-01-10T17:58:36;8.33;;;3.03;;
10293;SDS011;5192;50.328;7.610;2023-01-10T18:01:04;9.40;;;2.87;;
10293;SDS011;5192;50.328;7.610;2023-01-10T18:03:41;7.10;;;2.63;;
10293;SDS011;5192;50.328;7.610;2023-01-10T18:06:08;6.33;;;2.57;;
10293;SDS011;5192;50.328;7.610;2023-01-10T18:08:35;10.53;;;2.97;;
10293;SDS011;5192;50.328;7.610;2023-01-10T18:11:02;10.57;;;3.07;;
10293;SDS011;5192;50.328;7.610;2023-01-10T18:13:29;6.63;;;2.70;;
10293;SDS011;5192;50.328;7.610;2023-01-10T18:15:58;9.43;;;3.30;;
10293;SDS011;5192;50.328;7.610;2023-01-10T18:18:25;7.27;;;2.93;;
10293;SDS011;5192;50.328;7.610;2023-01-10T18:20:54;7.53;;;2.83;;
10293;SDS011;5192;50.328;7.610;2023-01-10T18:23:23;6.27;;;2.57;;
10293;SDS011;5192;50.328;7.610;2023-01-10T18:25:58;8.30;;;3.10;;
10293;SDS011;5192;50.328;7.610;2023-01-10T18:28:36;9.67;;;3.10;;
10293;SDS011;5192;50.328;7.610;2023-01-10T18:31:06;12.17;;;3.27;;
10293;SDS011;5192;50.328;7.610;2023-01-10T18:33:42;6.77;;;2.97;;
10293;SDS011;5192;50.328;7.610;2023-01-10T18:36:13;9.93;;;3.00;;
10293;SDS011;5192;50.328;7.610;2023-01-10T18:38:42;11.53;;;3.93;;
10293;SDS011;5192;50.328;7.610;2023-01-10T18:41:19;7.67;;;2.90;;
10293;SDS011;5192;50.328;7.610;2023-01-10T18:43:47;9.50;;;2.80;;
10293;SDS011;5192;50.328;7.610;2023-01-10T18:46:15;12.30;;;3.50;;
10293;SDS011;5192;50.328;7.610;2023-01-10T18:48:47;9.63;;;3.10;;
10293;SDS011;5192;50.328;7.610;2023-01-10T18:51:18;7.17;;;2.93;;
10293;SDS011;5192;50.328;7.610;2023-01-10T18:53:47;7.47;;;2.70;;
10293;SDS011;5192;50.328;7.610;2023-01-10T18:56:18;8.47;;;2.60;;
10293;SDS011;5192;50.328;7.610;2023-01-10T18:58:44;11.30;;;3.10;;
10293;SDS011;5192;50.328;7.610;2023-01-10T19:01:14;8.90;;;2.50;;
10293;SDS011;5192;50.328;7.610;2023-01-10T19:03:44;8.23;;;2.70;;